sensor_id;sensor_type;location;lat;lon;timestamp;P1;durP1;ratioP1;P2;durP2;ratioP2
60582;SDS011;46415;47.536;19.066;2024-02-26T00:00:05;19.25;;;12.23;;
60582;SDS011;46415;47.536;19.066;2024-02-26T00:03:12;18.65;;;12.45;;
60582;SDS011;46415;47.536;19.066;2024-02-26T00:06:15;17.95;;;12.35;;
60582;SDS011;46415;47.536;19.066;2024-02-26T00:09:19;17.10;;;11.65;;
60582;SDS011;46415;47.536;19.066;2024-02-26T00:12:21;16.45;;;10.90;;
60582;SDS011;46415;47.536;19.066;2024-02-26T00:15:24;16.67;;;10.82;;
60582;SDS011;46415;47.536;19.066;2024-02-26T00:18:27;16.35;;;10.80;;
60582;SDS011;46415;47.536;19.066;2024-02-26T00:21:30;17.77;;;11.52;;
60582;SDS011;46415;47.536;19.066;2024-02-26T00:24:33;14.87;;;10.13;;
60582;SDS011;46415;47.536;19.066;2024-02-26T00:27:36;14.63;;;10.65;;
60582;SDS011;46415;47.536;19.066;2024-02-26T00:30:39;15.43;;;10.10;;
60582;SDS011;46415;47.536;19.066;2024-02-26T00:33:42;15.40;;;10.82;;
60582;SDS011;46415;47.536;19.066;2024-02-26T00:36:46;14.40;;;10.07;;
60582;SDS011;46415;47.536;19.066;2024-02-26T00:39:48;15.57;;;10.30;;
60582;SDS011;46415;47.536;19.066;2024-02-26T00:42:51;13.20;;;9.85;;
60582;SDS011;46415;47.536;19.066;2024-02-26T00:45:54;17.60;;;10.30;;
60582;SDS011;46415;47.536;19.066;2024-02-26T00:48:57;16.35;;;9.75;;
60582;SDS011;46415;47.536;19.066;2024-02-26T00:52:00;15.77;;;10.60;;
60582;SDS011;46415;47.536;19.066;2024-02-26T00:55:03;14.10;;;9.27;;
60582;SDS011;46415;47.536;19.066;2024-02-26T00:58:06;15.27;;;9.75;;
60582;SDS011;46415;47.536;19.066;2024-02-26T01:01:08;16.42;;;10.60;;
60582;SDS011;46415;47.536;19.066;2024-02-26T01:04:12;14.40;;;10.18;;
60582;SDS011;46415;47.536;19.066;2024-02-26T01:07:15;15.77;;;9.70;;
60582;SDS011;46415;47.536;19.066;2024-02-26T01:10:18;15.68;;;9.15;;
60582;SDS011;46415;47.536;19.066;2024-02-26T01:13:20;15.10;;;9.90;;
60582;SDS011;46415;47.536;19.066;2024-02-26T01:16:23;16.52;;;10.50;;
60582;SDS011;46415;47.536;19.066;2024-02-26T01:19:26;14.18;;;9.00;;
60582;SDS011;46415;47.536;19.066;2024-02-26T01:22:29;15.40;;;9.32;;
60582;SDS011;46415;47.536;19.066;2024-02-26T01:25:32;14.23;;;8.98;;
60582;SDS011;46415;47.536;19.066;2024-02-26T01:28:35;14.30;;;9.48;;
60582;SDS011;46415;47.536;19.066;2024-02-26T01:31:38;16.87;;;9.23;;
60582;SDS011;46415;47.536;19.066;2024-02-26T01:34:41;12.55;;;8.35;;
60582;SDS011;46415;47.536;19.066;2024-02-26T01:37:43;14.73;;;9.70;;
60582;SDS011;46415;47.536;19.066;2024-02-26T01:40:46;13.10;;;8.20;;
60582;SDS011;46415;47.536;19.066;2024-02-26T01:43:49;15.27;;;9.85;;
60582;SDS011;46415;47.536;19.066;2024-02-26T01:46:52;15.68;;;8.82;;
60582;SDS011;46415;47.536;19.066;2024-02-26T01:49:55;19.10;;;10.70;;
60582;SDS011;46415;47.536;19.066;2024-02-26T01:52:58;15.88;;;11.15;;
60582;SDS011;46415;47.536;19.066;2024-02-26T01:56:01;19.12;;;11.05;;
60582;SDS011;46415;47.536;19.066;2024-02-26T01:59:05;18.83;;;12.18;;
60582;SDS011;46415;47.536;19.066;2024-02-26T02:02:10;16.67;;;10.68;;
60582;SDS011;46415;47.536;19.066;2024-02-26T02:05:15;18.40;;;11.80;;
60582;SDS011;46415;47.536;19.066;2024-02-26T02:08:21;15.13;;;10.43;;
60582;SDS011;46415;47.536;19.066;2024-02-26T02:11:25;16.20;;;11.27;;
60582;SDS011;46415;47.536;19.066;2024-02-26T02:14:28;18.58;;;10.68;;
60582;SDS011;46415;47.536;19.066;2024-02-26T02:17:31;18.27;;;12.07;;
60582;SDS011;46415;47.536;19.066;2024-02-26T02:20:34;16.27;;;10.55;;
60582;SDS011;46415;47.536;19.066;2024-02-26T02:23:37;15.95;;;10.52;;
60582;SDS011;46415;47.536;19.066;2024-02-26T02:26:40;19.75;;;11.25;;
60582;SDS011;46415;47.536;19.066;2024-02-26T02:29:43;17.92;;;11.80;;
60582;SDS011;46415;47.536;19.066;2024-02-26T02:32:46;15.95;;;10.82;;
60582;SDS011;46415;47.536;19.066;2024-02-26T02:35:49;18.30;;;10.52;;
60582;SDS011;46415;47.536;19.066;2024-02-26T02:38:54;20.55;;;11.43;;
60582;SDS011;46415;47.536;19.066;2024-02-26T02:41:57;17.90;;;10.32;;
60582;SDS011;46415;47.536;19.066;2024-02-26T02:45:00;19.25;;;11.85;;
60582;SDS011;46415;47.536;19.066;2024-02-26T02:48:03;18.30;;;11.52;;
60582;SDS011;46415;47.536;19.066;2024-02-26T02:51:07;18.52;;;11.02;;
60582;SDS011;46415;47.536;19.066;2024-02-26T02:54:10;22.58;;;10.68;;
60582;SDS011;46415;47.536;19.066;2024-02-26T02:57:12;15.07;;;10.38;;
60582;SDS011;46415;47.536;19.066;2024-02-26T03:00:15;16.25;;;10.43;;
60582;SDS011;46415;47.536;19.066;2024-02-26T03:03:19;15.50;;;10.93;;
60582;SDS011;46415;47.536;19.066;2024-02-26T03:06:22;17.35;;;11.20;;
60582;SDS011;46415;47.536;19.066;2024-02-26T03:09:25;17.30;;;11.55;;
60582;SDS011;46415;47.536;19.066;2024-02-26T03:12:29;16.05;;;11.18;;
60582;SDS011;46415;47.536;19.066;2024-02-26T03:15:32;18.62;;;11.57;;
60582;SDS011;46415;47.536;19.066;2024-02-26T03:18:35;16.48;;;10.90;;
60582;SDS011;46415;47.536;19.066;2024-02-26T03:21:40;20.45;;;11.82;;
60582;SDS011;46415;47.536;19.066;2024-02-26T03:24:43;18.27;;;11.00;;
60582;SDS011;46415;47.536;19.066;2024-02-26T03:27:46;16.75;;;11.07;;
60582;SDS011;46415;47.536;19.066;2024-02-26T03:30:49;18.50;;;12.35;;
60582;SDS011;46415;47.536;19.066;2024-02-26T03:33:51;17.90;;;10.90;;
60582;SDS011;46415;47.536;19.066;2024-02-26T03:36:54;17.85;;;11.12;;
60582;SDS011;46415;47.536;19.066;2024-02-26T03:39:57;14.80;;;10.10;;
60582;SDS011;46415;47.536;19.066;2024-02-26T03:43:00;20.02;;;12.50;;
60582;SDS011;46415;47.536;19.066;2024-02-26T03:46:03;17.50;;;11.35;;
60582;SDS011;46415;47.536;19.066;2024-02-26T03:49:06;17.70;;;10.23;;
60582;SDS011;46415;47.536;19.066;2024-02-26T03:52:09;16.95;;;11.05;;
60582;SDS011;46415;47.536;19.066;2024-02-26T03:55:12;15.90;;;10.52;;
60582;SDS011;46415;47.536;19.066;2024-02-26T03:58:15;16.37;;;11.15;;
60582;SDS011;46415;47.536;19.066;2024-02-26T04:01:18;17.90;;;10.73;;
60582;SDS011;46415;47.536;19.066;2024-02-26T04:04:21;18.15;;;10.82;;
60582;SDS011;46415;47.536;19.066;2024-02-26T04:07:24;16.58;;;10.77;;
60582;SDS011;46415;47.536;19.066;2024-02-26T04:10:26;16.37;;;10.32;;
60582;SDS011;46415;47.536;19.066;2024-02-26T04:13:29;15.73;;;10.68;;
60582;SDS011;46415;47.536;19.066;2024-02-26T04:16:32;15.18;;;9.88;;
60582;SDS011;46415;47.536;19.066;2024-02-26T04:19:34;17.50;;;11.68;;
60582;SDS011;46415;47.536;19.066;2024-02-26T04:22:37;16.62;;;9.95;;
60582;SDS011;46415;47.536;19.066;2024-02-26T04:25:40;16.05;;;10.27;;
60582;SDS011;46415;47.536;19.066;2024-02-26T04:28:43;16.02;;;10.52;;
60582;SDS011;46415;47.536;19.066;2024-02-26T04:31:46;15.50;;;9.23;;
60582;SDS011;46415;47.536;19.066;2024-02-26T04:34:50;13.82;;;9.20;;
60582;SDS011;46415;47.536;19.066;2024-02-26T04:37:53;15.35;;;9.90;;
60582;SDS011;46415;47.536;19.066;2024-02-26T04:40:58;14.05;;;9.45;;
60582;SDS011;46415;47.536;19.066;2024-02-26T04:44:00;16.27;;;10.48;;
60582;SDS011;46415;47.536;19.066;2024-02-26T04:47:04;16.70;;;11.18;;
60582;SDS011;46415;47.536;19.066;2024-02-26T04:50:07;14.63;;;10.05;;
60582;SDS011;46415;47.536;19.066;2024-02-26T04:53:10;15.70;;;9.20;;
60582;SDS011;46415;47.536;19.066;2024-02-26T04:56:13;14.15;;;9.57;;
60582;SDS011;46415;47.536;19.066;2024-02-26T04:59:16;12.73;;;8.25;;
60582;SDS011;46415;47.536;19.066;2024-02-26T05:02:18;12.75;;;8.80;;
60582;SDS011;46415;47.536;19.066;2024-02-26T05:05:21;12.68;;;9.40;;
60582;SDS011;46415;47.536;19.066;2024-02-26T05:08:24;12.30;;;8.38;;
60582;SDS011;46415;47.536;19.066;2024-02-26T05:11:27;14.55;;;9.27;;
60582;SDS011;46415;47.536;19.066;2024-02-26T05:14:29;13.88;;;8.15;;
60582;SDS011;46415;47.536;19.066;2024-02-26T05:17:32;16.70;;;10.15;;
60582;SDS011;46415;47.536;19.066;2024-02-26T05:20:36;16.25;;;8.93;;
60582;SDS011;46415;47.536;19.066;2024-02-26T05:23:40;13.43;;;9.02;;
60582;SDS011;46415;47.536;19.066;2024-02-26T05:26:45;16.60;;;9.68;;
60582;SDS011;46415;47.536;19.066;2024-02-26T05:29:48;17.02;;;9.95;;
60582;SDS011;46415;47.536;19.066;2024-02-26T05:32:51;15.10;;;9.52;;
60582;SDS011;46415;47.536;19.066;2024-02-26T05:35:54;14.98;;;9.60;;
60582;SDS011;46415;47.536;19.066;2024-02-26T05:38:56;17.65;;;10.15;;
60582;SDS011;46415;47.536;19.066;2024-02-26T05:42:00;18.00;;;12.20;;
60582;SDS011;46415;47.536;19.066;2024-02-26T05:45:03;17.27;;;11.57;;
60582;SDS011;46415;47.536;19.066;2024-02-26T05:48:09;15.68;;;10.68;;
60582;SDS011;46415;47.536;19.066;2024-02-26T05:51:12;15.25;;;10.13;;
60582;SDS011;46415;47.536;19.066;2024-02-26T05:54:15;16.48;;;10.75;;
60582;SDS011;46415;47.536;19.066;2024-02-26T05:57:18;14.68;;;9.18;;
60582;SDS011;46415;47.536;19.066;2024-02-26T06:00:21;16.85;;;10.60;;
60582;SDS011;46415;47.536;19.066;2024-02-26T06:03:24;16.95;;;9.38;;
60582;SDS011;46415;47.536;19.066;2024-02-26T06:06:27;16.92;;;9.57;;
60582;SDS011;46415;47.536;19.066;2024-02-26T06:09:30;14.38;;;9.85;;
60582;SDS011;46415;47.536;19.066;2024-02-26T06:12:36;16.83;;;10.45;;
60582;SDS011;46415;47.536;19.066;2024-02-26T06:15:39;16.98;;;10.90;;
60582;SDS011;46415;47.536;19.066;2024-02-26T06:18:42;16.58;;;10.60;;
60582;SDS011;46415;47.536;19.066;2024-02-26T06:21:45;18.58;;;10.93;;
60582;SDS011;46415;47.536;19.066;2024-02-26T06:24:48;17.25;;;10.98;;
60582;SDS011;46415;47.536;19.066;2024-02-26T06:27:52;14.43;;;9.27;;
60582;SDS011;46415;47.536;19.066;2024-02-26T06:30:54;15.50;;;10.38;;
60582;SDS011;46415;47.536;19.066;2024-02-26T06:33:58;14.02;;;10.05;;
60582;SDS011;46415;47.536;19.066;2024-02-26T06:37:01;15.75;;;9.88;;
60582;SDS011;46415;47.536;19.066;2024-02-26T06:40:04;14.87;;;9.20;;
60582;SDS011;46415;47.536;19.066;2024-02-26T06:43:08;18.75;;;10.35;;
60582;SDS011;46415;47.536;19.066;2024-02-26T06:46:11;17.83;;;10.55;;
60582;SDS011;46415;47.536;19.066;2024-02-26T06:49:14;16.30;;;9.50;;
60582;SDS011;46415;47.536;19.066;2024-02-26T06:52:17;16.92;;;10.32;;
60582;SDS011;46415;47.536;19.066;2024-02-26T06:55:20;17.33;;;10.43;;
60582;SDS011;46415;47.536;19.066;2024-02-26T06:58:23;18.00;;;11.10;;
60582;SDS011;46415;47.536;19.066;2024-02-26T07:01:26;17.00;;;11.00;;
60582;SDS011;46415;47.536;19.066;2024-02-26T07:04:29;18.10;;;11.43;;
60582;SDS011;46415;47.536;19.066;2024-02-26T07:07:34;16.58;;;10.48;;
60582;SDS011;46415;47.536;19.066;2024-02-26T07:10:37;16.77;;;11.23;;
60582;SDS011;46415;47.536;19.066;2024-02-26T07:13:40;19.45;;;11.38;;
60582;SDS011;46415;47.536;19.066;2024-02-26T07:16:43;16.12;;;10.93;;
60582;SDS011;46415;47.536;19.066;2024-02-26T07:19:45;17.60;;;11.32;;
60582;SDS011;46415;47.536;19.066;2024-02-26T07:22:48;16.02;;;10.65;;
60582;SDS011;46415;47.536;19.066;2024-02-26T07:25:51;15.30;;;10.20;;
60582;SDS011;46415;47.536;19.066;2024-02-26T07:28:55;15.32;;;11.00;;
60582;SDS011;46415;47.536;19.066;2024-02-26T07:31:58;16.67;;;11.32;;
60582;SDS011;46415;47.536;19.066;2024-02-26T07:35:01;16.87;;;12.00;;
60582;SDS011;46415;47.536;19.066;2024-02-26T07:38:05;16.62;;;11.43;;
60582;SDS011;46415;47.536;19.066;2024-02-26T07:41:08;17.42;;;10.88;;
60582;SDS011;46415;47.536;19.066;2024-02-26T07:44:10;17.87;;;12.65;;
60582;SDS011;46415;47.536;19.066;2024-02-26T07:47:14;18.45;;;12.20;;
60582;SDS011;46415;47.536;19.066;2024-02-26T07:50:17;16.87;;;12.43;;
60582;SDS011;46415;47.536;19.066;2024-02-26T07:53:20;17.98;;;12.75;;
60582;SDS011;46415;47.536;19.066;2024-02-26T07:56:23;20.48;;;14.27;;
60582;SDS011;46415;47.536;19.066;2024-02-26T07:59:26;18.45;;;13.35;;
60582;SDS011;46415;47.536;19.066;2024-02-26T08:02:28;24.23;;;15.55;;
60582;SDS011;46415;47.536;19.066;2024-02-26T08:05:31;20.80;;;15.20;;
60582;SDS011;46415;47.536;19.066;2024-02-26T08:08:34;22.00;;;15.80;;
60582;SDS011;46415;47.536;19.066;2024-02-26T08:11:37;26.33;;;16.70;;
60582;SDS011;46415;47.536;19.066;2024-02-26T08:14:40;22.30;;;15.98;;
60582;SDS011;46415;47.536;19.066;2024-02-26T08:17:43;21.12;;;15.80;;
60582;SDS011;46415;47.536;19.066;2024-02-26T08:20:47;22.87;;;16.15;;
60582;SDS011;46415;47.536;19.066;2024-02-26T08:23:51;21.25;;;15.48;;
60582;SDS011;46415;47.536;19.066;2024-02-26T08:26:54;20.65;;;14.93;;
60582;SDS011;46415;47.536;19.066;2024-02-26T08:29:57;22.70;;;15.88;;
60582;SDS011;46415;47.536;19.066;2024-02-26T08:33:00;19.48;;;15.60;;
60582;SDS011;46415;47.536;19.066;2024-02-26T08:36:06;20.75;;;16.37;;
60582;SDS011;46415;47.536;19.066;2024-02-26T08:39:09;21.08;;;15.85;;
60582;SDS011;46415;47.536;19.066;2024-02-26T08:42:12;22.37;;;15.68;;
60582;SDS011;46415;47.536;19.066;2024-02-26T08:45:14;23.25;;;15.82;;
60582;SDS011;46415;47.536;19.066;2024-02-26T08:48:17;21.40;;;15.02;;
60582;SDS011;46415;47.536;19.066;2024-02-26T08:51:20;21.75;;;15.65;;
60582;SDS011;46415;47.536;19.066;2024-02-26T08:54:23;21.10;;;15.35;;
60582;SDS011;46415;47.536;19.066;2024-02-26T08:57:27;21.77;;;15.57;;
60582;SDS011;46415;47.536;19.066;2024-02-26T09:00:30;22.60;;;16.75;;
60582;SDS011;46415;47.536;19.066;2024-02-26T09:03:33;23.75;;;16.75;;
60582;SDS011;46415;47.536;19.066;2024-02-26T09:06:36;23.95;;;16.23;;
60582;SDS011;46415;47.536;19.066;2024-02-26T09:09:39;21.77;;;15.88;;
60582;SDS011;46415;47.536;19.066;2024-02-26T09:12:42;20.65;;;15.40;;
60582;SDS011;46415;47.536;19.066;2024-02-26T09:15:45;24.77;;;17.15;;
60582;SDS011;46415;47.536;19.066;2024-02-26T09:18:48;22.45;;;15.63;;
60582;SDS011;46415;47.536;19.066;2024-02-26T09:21:51;23.85;;;17.15;;
60582;SDS011;46415;47.536;19.066;2024-02-26T09:24:54;21.05;;;15.65;;
60582;SDS011;46415;47.536;19.066;2024-02-26T09:27:57;22.42;;;16.45;;
60582;SDS011;46415;47.536;19.066;2024-02-26T09:31:00;21.05;;;16.08;;
60582;SDS011;46415;47.536;19.066;2024-02-26T09:34:02;21.12;;;15.85;;
60582;SDS011;46415;47.536;19.066;2024-02-26T09:37:05;22.92;;;15.10;;
60582;SDS011;46415;47.536;19.066;2024-02-26T09:40:22;18.77;;;14.80;;
60582;SDS011;46415;47.536;19.066;2024-02-26T09:43:25;20.45;;;14.85;;
60582;SDS011;46415;47.536;19.066;2024-02-26T09:46:35;19.50;;;15.13;;
60582;SDS011;46415;47.536;19.066;2024-02-26T09:49:38;19.58;;;14.95;;
60582;SDS011;46415;47.536;19.066;2024-02-26T09:52:41;18.33;;;13.95;;
60582;SDS011;46415;47.536;19.066;2024-02-26T09:55:45;20.58;;;14.27;;
60582;SDS011;46415;47.536;19.066;2024-02-26T09:58:48;22.15;;;14.82;;
60582;SDS011;46415;47.536;19.066;2024-02-26T10:01:56;17.33;;;13.48;;
60582;SDS011;46415;47.536;19.066;2024-02-26T10:05:02;18.52;;;14.35;;
60582;SDS011;46415;47.536;19.066;2024-02-26T10:08:10;20.80;;;14.90;;
60582;SDS011;46415;47.536;19.066;2024-02-26T10:11:15;21.13;;;16.10;;
60582;SDS011;46415;47.536;19.066;2024-02-26T10:14:19;21.15;;;16.08;;
60582;SDS011;46415;47.536;19.066;2024-02-26T10:17:22;20.40;;;14.82;;
60582;SDS011;46415;47.536;19.066;2024-02-26T10:20:25;22.27;;;15.02;;
60582;SDS011;46415;47.536;19.066;2024-02-26T10:23:29;17.90;;;13.75;;
60582;SDS011;46415;47.536;19.066;2024-02-26T10:26:31;20.45;;;14.00;;
60582;SDS011;46415;47.536;19.066;2024-02-26T10:29:34;19.25;;;14.23;;
60582;SDS011;46415;47.536;19.066;2024-02-26T10:32:37;19.70;;;14.80;;
60582;SDS011;46415;47.536;19.066;2024-02-26T10:35:47;18.80;;;14.10;;
60582;SDS011;46415;47.536;19.066;2024-02-26T10:38:50;17.75;;;12.85;;
60582;SDS011;46415;47.536;19.066;2024-02-26T10:41:57;18.60;;;12.75;;
60582;SDS011;46415;47.536;19.066;2024-02-26T10:45:00;16.65;;;11.82;;
60582;SDS011;46415;47.536;19.066;2024-02-26T10:48:04;15.27;;;12.35;;
60582;SDS011;46415;47.536;19.066;2024-02-26T10:51:12;14.50;;;10.63;;
60582;SDS011;46415;47.536;19.066;2024-02-26T10:54:16;14.02;;;10.70;;
60582;SDS011;46415;47.536;19.066;2024-02-26T10:57:21;14.05;;;10.98;;
60582;SDS011;46415;47.536;19.066;2024-02-26T11:00:26;13.48;;;10.63;;
60582;SDS011;46415;47.536;19.066;2024-02-26T11:03:31;14.07;;;10.65;;
60582;SDS011;46415;47.536;19.066;2024-02-26T11:06:37;13.00;;;10.02;;
60582;SDS011;46415;47.536;19.066;2024-02-26T11:09:40;14.82;;;9.88;;
60582;SDS011;46415;47.536;19.066;2024-02-26T11:12:47;11.93;;;9.55;;
60582;SDS011;46415;47.536;19.066;2024-02-26T11:15:51;14.70;;;9.30;;
60582;SDS011;46415;47.536;19.066;2024-02-26T11:18:55;11.95;;;9.45;;
60582;SDS011;46415;47.536;19.066;2024-02-26T11:22:00;12.13;;;9.27;;
60582;SDS011;46415;47.536;19.066;2024-02-26T11:25:20;12.65;;;9.55;;
60582;SDS011;46415;47.536;19.066;2024-02-26T11:28:23;12.57;;;8.95;;
60582;SDS011;46415;47.536;19.066;2024-02-26T11:31:27;10.32;;;8.20;;
60582;SDS011;46415;47.536;19.066;2024-02-26T11:34:30;10.38;;;7.95;;
60582;SDS011;46415;47.536;19.066;2024-02-26T11:37:33;11.23;;;8.05;;
60582;SDS011;46415;47.536;19.066;2024-02-26T11:40:42;10.70;;;8.15;;
60582;SDS011;46415;47.536;19.066;2024-02-26T11:43:50;8.07;;;7.28;;
60582;SDS011;46415;47.536;19.066;2024-02-26T11:50:55;9.32;;;7.55;;
60582;SDS011;46415;47.536;19.066;2024-02-26T11:54:00;9.85;;;6.78;;
60582;SDS011;46415;47.536;19.066;2024-02-26T11:57:03;9.13;;;6.72;;
60582;SDS011;46415;47.536;19.066;2024-02-26T12:03:10;8.90;;;6.55;;
60582;SDS011;46415;47.536;19.066;2024-02-26T12:06:14;9.30;;;7.00;;
60582;SDS011;46415;47.536;19.066;2024-02-26T12:09:30;12.07;;;6.85;;
60582;SDS011;46415;47.536;19.066;2024-02-26T12:12:36;9.85;;;7.28;;
60582;SDS011;46415;47.536;19.066;2024-02-26T12:18:45;11.50;;;7.60;;
60582;SDS011;46415;47.536;19.066;2024-02-26T12:21:52;9.05;;;6.50;;
60582;SDS011;46415;47.536;19.066;2024-02-26T12:25:00;9.20;;;7.15;;
60582;SDS011;46415;47.536;19.066;2024-02-26T12:28:05;7.62;;;6.35;;
60582;SDS011;46415;47.536;19.066;2024-02-26T12:31:09;9.23;;;6.25;;
60582;SDS011;46415;47.536;19.066;2024-02-26T12:34:12;9.40;;;6.32;;
60582;SDS011;46415;47.536;19.066;2024-02-26T12:37:16;5.95;;;5.30;;
60582;SDS011;46415;47.536;19.066;2024-02-26T12:40:19;9.25;;;4.90;;
60582;SDS011;46415;47.536;19.066;2024-02-26T12:43:22;8.13;;;5.00;;
60582;SDS011;46415;47.536;19.066;2024-02-26T12:46:25;8.90;;;5.30;;
60582;SDS011;46415;47.536;19.066;2024-02-26T12:49:28;5.95;;;4.62;;
60582;SDS011;46415;47.536;19.066;2024-02-26T12:52:35;5.20;;;4.15;;
60582;SDS011;46415;47.536;19.066;2024-02-26T12:55:39;4.68;;;3.90;;
60582;SDS011;46415;47.536;19.066;2024-02-26T12:58:43;4.12;;;3.72;;
60582;SDS011;46415;47.536;19.066;2024-02-26T13:01:48;6.70;;;4.12;;
60582;SDS011;46415;47.536;19.066;2024-02-26T13:04:51;7.32;;;4.00;;
60582;SDS011;46415;47.536;19.066;2024-02-26T13:07:55;5.22;;;3.67;;
60582;SDS011;46415;47.536;19.066;2024-02-26T13:11:01;5.40;;;4.82;;
60582;SDS011;46415;47.536;19.066;2024-02-26T13:14:04;5.18;;;3.92;;
60582;SDS011;46415;47.536;19.066;2024-02-26T13:17:10;5.72;;;3.97;;
60582;SDS011;46415;47.536;19.066;2024-02-26T13:20:13;6.90;;;3.72;;
60582;SDS011;46415;47.536;19.066;2024-02-26T13:23:27;4.82;;;3.72;;
60582;SDS011;46415;47.536;19.066;2024-02-26T13:26:30;4.07;;;3.50;;
60582;SDS011;46415;47.536;19.066;2024-02-26T13:29:33;5.93;;;4.22;;
60582;SDS011;46415;47.536;19.066;2024-02-26T13:32:36;5.82;;;3.95;;
60582;SDS011;46415;47.536;19.066;2024-02-26T13:35:40;6.97;;;3.65;;
60582;SDS011;46415;47.536;19.066;2024-02-26T13:38:50;4.40;;;3.83;;
60582;SDS011;46415;47.536;19.066;2024-02-26T13:41:55;4.43;;;3.50;;
60582;SDS011;46415;47.536;19.066;2024-02-26T13:44:59;4.50;;;3.50;;
60582;SDS011;46415;47.536;19.066;2024-02-26T13:48:03;3.90;;;3.35;;
60582;SDS011;46415;47.536;19.066;2024-02-26T13:51:14;3.85;;;3.45;;
60582;SDS011;46415;47.536;19.066;2024-02-26T13:54:17;4.55;;;3.47;;
60582;SDS011;46415;47.536;19.066;2024-02-26T13:57:20;4.30;;;3.42;;
60582;SDS011;46415;47.536;19.066;2024-02-26T14:00:23;5.12;;;3.92;;
60582;SDS011;46415;47.536;19.066;2024-02-26T14:03:27;4.72;;;3.50;;
60582;SDS011;46415;47.536;19.066;2024-02-26T14:06:30;3.60;;;3.30;;
60582;SDS011;46415;47.536;19.066;2024-02-26T14:09:37;7.20;;;3.83;;
60582;SDS011;46415;47.536;19.066;2024-02-26T14:12:51;4.07;;;3.67;;
60582;SDS011;46415;47.536;19.066;2024-02-26T14:15:54;4.25;;;3.20;;
60582;SDS011;46415;47.536;19.066;2024-02-26T14:18:56;4.93;;;3.75;;
60582;SDS011;46415;47.536;19.066;2024-02-26T14:21:59;6.68;;;4.18;;
60582;SDS011;46415;47.536;19.066;2024-02-26T14:25:02;4.00;;;3.60;;
60582;SDS011;46415;47.536;19.066;2024-02-26T14:28:05;5.53;;;3.78;;
60582;SDS011;46415;47.536;19.066;2024-02-26T14:31:10;7.60;;;4.25;;
60582;SDS011;46415;47.536;19.066;2024-02-26T14:34:13;4.78;;;4.25;;
60582;SDS011;46415;47.536;19.066;2024-02-26T14:37:16;6.62;;;4.40;;
60582;SDS011;46415;47.536;19.066;2024-02-26T14:40:19;5.40;;;4.32;;
60582;SDS011;46415;47.536;19.066;2024-02-26T14:43:22;5.55;;;4.95;;
60582;SDS011;46415;47.536;19.066;2024-02-26T14:46:25;5.78;;;5.12;;
60582;SDS011;46415;47.536;19.066;2024-02-26T14:49:27;6.20;;;5.12;;
60582;SDS011;46415;47.536;19.066;2024-02-26T14:52:32;5.87;;;5.32;;
60582;SDS011;46415;47.536;19.066;2024-02-26T14:55:35;6.05;;;5.07;;
60582;SDS011;46415;47.536;19.066;2024-02-26T14:58:40;5.93;;;5.43;;
60582;SDS011;46415;47.536;19.066;2024-02-26T15:01:42;7.00;;;5.30;;
60582;SDS011;46415;47.536;19.066;2024-02-26T15:04:49;8.45;;;6.07;;
60582;SDS011;46415;47.536;19.066;2024-02-26T15:07:51;5.57;;;4.90;;
60582;SDS011;46415;47.536;19.066;2024-02-26T15:10:54;7.50;;;5.50;;
60582;SDS011;46415;47.536;19.066;2024-02-26T15:13:57;5.93;;;5.30;;
60582;SDS011;46415;47.536;19.066;2024-02-26T15:17:00;5.90;;;5.30;;
60582;SDS011;46415;47.536;19.066;2024-02-26T15:20:03;6.10;;;4.95;;
60582;SDS011;46415;47.536;19.066;2024-02-26T15:23:08;6.47;;;4.40;;
60582;SDS011;46415;47.536;19.066;2024-02-26T15:26:11;5.65;;;5.10;;
60582;SDS011;46415;47.536;19.066;2024-02-26T15:29:14;6.37;;;5.12;;
60582;SDS011;46415;47.536;19.066;2024-02-26T15:32:17;7.07;;;5.43;;
60582;SDS011;46415;47.536;19.066;2024-02-26T15:35:22;9.18;;;6.15;;
60582;SDS011;46415;47.536;19.066;2024-02-26T15:38:25;6.20;;;5.28;;
60582;SDS011;46415;47.536;19.066;2024-02-26T15:41:30;5.68;;;5.10;;
60582;SDS011;46415;47.536;19.066;2024-02-26T15:44:36;6.87;;;5.90;;
60582;SDS011;46415;47.536;19.066;2024-02-26T15:47:41;6.43;;;5.75;;
60582;SDS011;46415;47.536;19.066;2024-02-26T15:50:44;6.55;;;5.30;;
60582;SDS011;46415;47.536;19.066;2024-02-26T15:53:47;6.65;;;5.20;;
60582;SDS011;46415;47.536;19.066;2024-02-26T15:56:51;10.10;;;5.70;;
60582;SDS011;46415;47.536;19.066;2024-02-26T15:59:54;6.50;;;5.72;;
60582;SDS011;46415;47.536;19.066;2024-02-26T16:03:13;6.75;;;5.87;;
60582;SDS011;46415;47.536;19.066;2024-02-26T16:06:18;9.80;;;6.03;;
60582;SDS011;46415;47.536;19.066;2024-02-26T16:09:25;7.50;;;6.12;;
60582;SDS011;46415;47.536;19.066;2024-02-26T16:12:38;9.68;;;6.95;;
60582;SDS011;46415;47.536;19.066;2024-02-26T16:15:47;8.27;;;6.00;;
60582;SDS011;46415;47.536;19.066;2024-02-26T16:18:58;7.05;;;6.18;;
60582;SDS011;46415;47.536;19.066;2024-02-26T16:22:09;8.35;;;6.28;;
60582;SDS011;46415;47.536;19.066;2024-02-26T16:25:12;10.15;;;6.43;;
60582;SDS011;46415;47.536;19.066;2024-02-26T16:28:15;8.15;;;6.68;;
60582;SDS011;46415;47.536;19.066;2024-02-26T16:31:18;9.68;;;7.32;;
60582;SDS011;46415;47.536;19.066;2024-02-26T16:34:20;9.55;;;7.15;;
60582;SDS011;46415;47.536;19.066;2024-02-26T16:37:23;13.30;;;8.15;;
60582;SDS011;46415;47.536;19.066;2024-02-26T16:40:26;9.02;;;6.90;;
60582;SDS011;46415;47.536;19.066;2024-02-26T16:43:29;12.10;;;7.60;;
60582;SDS011;46415;47.536;19.066;2024-02-26T16:46:33;12.15;;;7.90;;
60582;SDS011;46415;47.536;19.066;2024-02-26T16:49:37;11.00;;;7.57;;
60582;SDS011;46415;47.536;19.066;2024-02-26T16:52:39;11.40;;;7.53;;
60582;SDS011;46415;47.536;19.066;2024-02-26T16:55:42;14.25;;;8.13;;
60582;SDS011;46415;47.536;19.066;2024-02-26T16:58:45;10.15;;;7.82;;
60582;SDS011;46415;47.536;19.066;2024-02-26T17:01:49;12.02;;;7.97;;
60582;SDS011;46415;47.536;19.066;2024-02-26T17:04:52;12.73;;;7.97;;
60582;SDS011;46415;47.536;19.066;2024-02-26T17:07:55;13.23;;;8.52;;
60582;SDS011;46415;47.536;19.066;2024-02-26T17:10:57;16.85;;;9.00;;
60582;SDS011;46415;47.536;19.066;2024-02-26T17:14:00;12.20;;;8.82;;
60582;SDS011;46415;47.536;19.066;2024-02-26T17:17:05;13.77;;;8.75;;
60582;SDS011;46415;47.536;19.066;2024-02-26T17:20:09;14.40;;;8.90;;
60582;SDS011;46415;47.536;19.066;2024-02-26T17:23:13;12.95;;;9.38;;
60582;SDS011;46415;47.536;19.066;2024-02-26T17:26:17;15.93;;;8.38;;
60582;SDS011;46415;47.536;19.066;2024-02-26T17:29:21;9.68;;;7.57;;
60582;SDS011;46415;47.536;19.066;2024-02-26T17:32:24;18.62;;;9.52;;
60582;SDS011;46415;47.536;19.066;2024-02-26T17:35:27;15.95;;;9.10;;
60582;SDS011;46415;47.536;19.066;2024-02-26T17:38:29;14.38;;;9.02;;
60582;SDS011;46415;47.536;19.066;2024-02-26T17:41:32;17.08;;;9.75;;
60582;SDS011;46415;47.536;19.066;2024-02-26T17:44:38;13.98;;;9.85;;
60582;SDS011;46415;47.536;19.066;2024-02-26T17:47:41;16.00;;;10.68;;
60582;SDS011;46415;47.536;19.066;2024-02-26T17:50:46;13.27;;;10.57;;
60582;SDS011;46415;47.536;19.066;2024-02-26T17:53:49;15.63;;;10.32;;
60582;SDS011;46415;47.536;19.066;2024-02-26T17:56:52;15.05;;;10.95;;
60582;SDS011;46415;47.536;19.066;2024-02-26T17:59:55;15.73;;;10.93;;